Time,TemperatureF,DewpointF,PressureIn,WindDirection,WindDirectionDegrees,WindSpeedMPH,WindSpeedGustMPH,Humidity,HourlyPrecipIn,Conditions,Clouds,dailyrainin,SoftwareType,DateUTC
2013-07-24 00:11:00,75.0,69.0,29.85,North,350,4.0,10.0,82,0.00,,,0.01,,2013-07-24 04:11:00,
2013-07-24 00:22:00,74.0,68.0,29.86,NNW,346,4.0,9.0,82,0.00,,,0.01,,2013-07-24 04:22:00,
2013-07-24 00:32:00,74.0,68.0,29.86,North,357,3.0,9.0,82,0.00,,,0.01,,2013-07-24 04:32:00,
2013-07-24 00:52:00,73.0,67.0,29.86,North,356,5.0,11.0,81,0.00,,,0.01,,2013-07-24 04:52:00,
2013-07-24 01:02:00,72.0,66.0,29.86,NNW,336,4.0,14.0,81,0.00,,,0.01,,2013-07-24 05:02:00,
2013-07-24 01:11:00,72.0,66.0,29.86,NW,317,4.0,9.0,82,0.00,,,0.01,,2013-07-24 05:11:00,
2013-07-24 01:52:00,70.0,64.0,29.87,North,359,1.0,9.0,82,0.00,,,0.01,,2013-07-24 05:52:00,
2013-07-24 02:01:00,70.0,64.0,29.87,North,359,2.0,7.0,81,0.00,,,0.01,,2013-07-24 06:01:00,
2013-07-24 02:12:00,70.0,64.0,29.87,North,359,2.0,7.0,81,0.00,,,0.01,,2013-07-24 06:12:00,
2013-07-24 02:34:00,69.0,63.0,29.87,NNW,347,3.0,7.0,80,0.00,,,0.01,,2013-07-24 06:34:00,
2013-07-24 02:53:00,68.0,61.0,29.87,North,353,3.0,10.0,78,0.00,,,0.01,,2013-07-24 06:53:00,
2013-07-24 03:02:00,68.0,61.0,29.87,North,355,5.0,9.0,78,0.00,,,0.01,,2013-07-24 07:02:00,
2013-07-24 03:12:00,67.0,60.0,29.87,NNW,345,5.0,10.0,78,0.00,,,0.01,,2013-07-24 07:12:00,
2013-07-24 03:22:00,67.0,60.0,29.88,NNW,338,5.0,13.0,78,0.00,,,0.01,,2013-07-24 07:22:00,
2013-07-24 03:32:00,66.0,59.0,29.88,NNW,342,4.0,10.0,78,0.00,,,0.01,,2013-07-24 07:32:00,
2013-07-24 03:43:00,66.0,59.0,29.88,North,359,3.0,9.0,78,0.00,,,0.01,,2013-07-24 07:43:00,
2013-07-24 03:52:00,66.0,59.0,29.88,North,350,1.0,10.0,78,0.00,,,0.01,,2013-07-24 07:52:00,
2013-07-24 04:02:00,66.0,59.0,29.88,NNW,341,3.0,7.0,79,0.00,,,0.01,,2013-07-24 08:02:00,
2013-07-24 04:12:00,66.0,59.0,29.88,NW,314,3.0,9.0,79,0.00,,,0.01,,2013-07-24 08:12:00,
2013-07-24 04:22:00,65.0,58.0,29.88,NW,315,2.0,6.0,78,0.00,,,0.01,,2013-07-24 08:22:00,
2013-07-24 04:32:00,65.0,58.0,29.89,NNW,329,4.0,8.0,79,0.00,,,0.01,,2013-07-24 08:32:00,
2013-07-24 04:43:00,65.0,58.0,29.88,NNW,337,3.0,6.0,78,0.00,,,0.01,,2013-07-24 08:43:00,
2013-07-24 04:52:00,65.0,58.0,29.88,NNW,347,3.0,9.0,79,0.00,,,0.01,,2013-07-24 08:52:00,
2013-07-24 05:02:00,64.0,57.0,29.89,NNW,339,3.0,8.0,79,0.00,,,0.01,,2013-07-24 09:02:00,
2013-07-24 05:12:00,64.0,57.0,29.89,NNW,339,3.0,8.0,79,0.00,,,0.01,,2013-07-24 09:12:00,
2013-07-24 05:22:00,64.0,58.0,29.89,NNW,339,0.0,6.0,80,0.00,,,0.01,,2013-07-24 09:22:00,
2013-07-24 05:32:00,64.0,58.0,29.89,NW,319,4.0,8.0,80,0.00,,,0.01,,2013-07-24 09:32:00,
2013-07-24 05:43:00,64.0,58.0,29.90,NNW,336,2.0,7.0,81,0.00,,,0.01,,2013-07-24 09:43:00,
2013-07-24 05:53:00,64.0,58.0,29.90,NNW,336,2.0,7.0,81,0.00,,,0.01,,2013-07-24 09:53:00,
2013-07-24 06:02:00,63.0,57.0,29.90,NNW,345,2.0,6.0,82,0.00,,,0.01,,2013-07-24 10:02:00,
2013-07-24 06:12:00,63.0,57.0,29.90,NNW,345,2.0,6.0,82,0.00,,,0.01,,2013-07-24 10:12:00,
2013-07-24 06:22:00,63.0,57.0,29.90,NNW,339,1.0,8.0,82,0.00,,,0.01,,2013-07-24 10:22:00,
2013-07-24 06:33:00,62.0,56.0,29.90,NNW,336,1.0,7.0,82,0.00,,,0.01,,2013-07-24 10:33:00,
2013-07-24 06:43:00,62.0,57.0,29.90,NNW,340,2.0,7.0,83,0.00,,,0.01,,2013-07-24 10:43:00,
2013-07-24 07:02:00,61.0,56.0,29.91,North,349,0.0,8.0,84,0.00,,,0.00,,2013-07-24 11:02:00,
2013-07-24 07:43:00,61.0,57.0,29.93,North,352,0.0,3.0,86,0.00,,,0.00,,2013-07-24 11:43:00,
2013-07-24 07:52:00,61.0,57.0,29.93,North,352,0.0,3.0,86,0.00,,,0.00,,2013-07-24 11:52:00,
2013-07-24 08:02:00,61.0,57.0,29.93,North,351,2.0,6.0,86,0.00,,,0.00,,2013-07-24 12:02:00,
2013-07-24 08:12:00,61.0,57.0,29.93,North,358,2.0,9.0,86,0.00,,,0.00,,2013-07-24 12:12:00,
2013-07-24 08:22:00,61.0,57.0,29.93,North,351,4.0,7.0,87,0.00,,,0.00,,2013-07-24 12:22:00,
2013-07-24 08:32:00,61.0,57.0,29.94,NNW,329,3.0,9.0,86,0.00,,,0.00,,2013-07-24 12:32:00,
2013-07-24 08:42:00,62.0,57.0,29.94,North,359,1.0,7.0,85,0.00,,,0.00,,2013-07-24 12:42:00,
2013-07-24 09:02:00,63.0,59.0,29.94,North,354,1.0,6.0,86,0.00,,,0.00,,2013-07-24 13:02:00,
2013-07-24 09:12:00,63.0,58.0,29.94,North,359,0.0,8.0,85,0.00,,,0.00,,2013-07-24 13:12:00,
2013-07-24 09:22:00,64.0,59.0,29.94,North,359,1.0,5.0,85,0.00,,,0.00,,2013-07-24 13:22:00,
2013-07-24 09:32:00,64.0,59.0,29.94,North,359,0.0,4.0,84,0.00,,,0.00,,2013-07-24 13:32:00,
2013-07-24 09:43:00,64.0,59.0,29.94,North,-999,-999.0,-999.0,85,0.00,,,0.00,,2013-07-24 13:43:00,
2013-07-24 09:53:00,64.0,59.0,29.94,North,-999,-999.0,-999.0,85,0.00,,,0.00,,2013-07-24 13:53:00,
2013-07-24 10:02:00,65.0,60.0,29.94,North,-999,-999.0,-999.0,83,0.00,,,0.00,,2013-07-24 14:02:00,
2013-07-24 10:12:00,66.0,61.0,29.95,North,-999,-999.0,-999.0,84,0.00,,,0.00,,2013-07-24 14:12:00,
2013-07-24 10:22:00,66.0,61.0,29.94,North,3,0.0,10.0,83,0.00,,,0.00,,2013-07-24 14:22:00,
2013-07-24 10:32:00,66.0,61.0,29.95,North,2,0.0,6.0,83,0.00,,,0.00,,2013-07-24 14:32:00,
2013-07-24 10:43:00,66.0,61.0,29.95,North,349,5.0,10.0,83,0.00,,,0.00,,2013-07-24 14:43:00,
2013-07-24 10:55:00,66.0,61.0,29.95,North,351,0.0,6.0,83,0.00,,,0.00,,2013-07-24 14:55:00,
2013-07-24 11:02:00,66.0,61.0,29.96,North,350,2.0,4.0,84,0.00,,,0.00,,2013-07-24 15:02:00,
2013-07-24 11:22:00,67.0,62.0,29.96,North,353,1.0,5.0,84,0.00,,,0.00,,2013-07-24 15:22:00,
2013-07-24 11:33:00,67.0,62.0,29.95,North,355,3.0,6.0,84,0.00,,,0.00,,2013-07-24 15:33:00,
2013-07-24 11:43:00,67.0,62.0,29.95,NNW,342,4.0,7.0,83,0.00,,,0.00,,2013-07-24 15:43:00,
2013-07-24 11:52:00,68.0,63.0,29.95,NNW,336,1.0,7.0,83,0.00,,,0.00,,2013-07-24 15:52:00,
2013-07-24 12:02:00,68.0,63.0,29.95,NNW,336,1.0,4.0,83,0.00,,,0.00,,2013-07-24 16:02:00,
2013-07-24 12:12:00,68.0,63.0,29.95,NNW,336,1.0,5.0,83,0.00,,,0.00,,2013-07-24 16:12:00,
2013-07-24 12:22:00,68.0,62.0,29.95,NNW,336,1.0,4.0,81,0.00,,,0.00,,2013-07-24 16:22:00,
2013-07-24 12:33:00,68.0,62.0,29.95,NNW,346,0.0,8.0,81,0.00,,,0.00,,2013-07-24 16:33:00,
2013-07-24 12:43:00,69.0,63.0,29.96,NNW,348,1.0,6.0,82,0.00,,,0.00,,2013-07-24 16:43:00,
2013-07-24 12:53:00,69.0,63.0,29.96,NNW,348,1.0,4.0,82,0.00,,,0.00,,2013-07-24 16:53:00,
2013-07-24 13:02:00,69.0,63.0,29.96,NNW,348,1.0,4.0,81,0.00,,,0.00,,2013-07-24 17:02:00,
2013-07-24 13:12:00,69.0,63.0,29.95,North,350,4.0,6.0,81,0.00,,,0.00,,2013-07-24 17:12:00,
2013-07-24 13:22:00,70.0,64.0,29.96,North,349,0.0,5.0,80,0.00,,,0.00,,2013-07-24 17:22:00,
2013-07-24 13:33:00,70.0,64.0,29.96,North,349,1.0,4.0,80,0.00,,,0.00,,2013-07-24 17:33:00,
2013-07-24 13:53:00,71.0,65.0,29.96,North,349,3.0,7.0,81,0.00,,,0.00,,2013-07-24 17:53:00,
2013-07-24 14:02:00,71.0,64.0,29.96,North,359,0.0,7.0,79,0.00,,,0.00,,2013-07-24 18:02:00,
2013-07-24 14:12:00,71.0,64.0,29.96,North,359,1.0,7.0,79,0.00,,,0.00,,2013-07-24 18:12:00,
2013-07-24 14:22:00,71.0,64.0,29.96,North,-999,-999.0,-999.0,79,0.00,,,0.00,,2013-07-24 18:22:00,
2013-07-24 14:33:00,72.0,64.0,29.96,North,-999,-999.0,-999.0,77,0.00,,,0.00,,2013-07-24 18:33:00,
2013-07-24 14:43:00,72.0,65.0,29.96,North,-999,-999.0,-999.0,80,0.00,,,0.00,,2013-07-24 18:43:00,
2013-07-24 14:52:00,72.0,65.0,29.96,North,-999,-999.0,-999.0,80,0.00,,,0.00,,2013-07-24 18:52:00,
2013-07-24 15:02:00,72.0,65.0,29.95,North,0,2.0,7.0,78,0.00,,,0.00,,2013-07-24 19:02:00,
2013-07-24 15:12:00,72.0,64.0,29.95,North,-999,-999.0,-999.0,76,0.00,,,0.00,,2013-07-24 19:12:00,
2013-07-24 15:22:00,72.0,64.0,29.95,North,-999,-999.0,-999.0,75,0.00,,,0.00,,2013-07-24 19:22:00,
2013-07-24 15:32:00,72.0,64.0,29.95,North,0,3.0,6.0,75,0.00,,,0.00,,2013-07-24 19:32:00,
2013-07-24 15:43:00,73.0,64.0,29.95,North,-999,-999.0,-999.0,74,0.00,,,0.00,,2013-07-24 19:43:00,
2013-07-24 15:53:00,73.0,63.0,29.95,North,-999,-999.0,-999.0,72,0.00,,,0.00,,2013-07-24 19:53:00,
2013-07-24 16:13:00,73.0,63.0,29.95,North,2,2.0,4.0,70,0.00,,,0.00,,2013-07-24 20:13:00,
2013-07-24 16:23:00,74.0,63.0,29.94,North,2,1.0,2.0,68,0.00,,,0.00,,2013-07-24 20:23:00,
2013-07-24 16:32:00,74.0,64.0,29.94,North,-999,-999.0,-999.0,70,0.00,,,0.00,,2013-07-24 20:32:00,
2013-07-24 16:43:00,74.0,63.0,29.94,North,-999,-999.0,-999.0,68,0.00,,,0.00,,2013-07-24 20:43:00,
2013-07-24 16:52:00,74.0,62.0,29.94,North,-999,-999.0,-999.0,66,0.00,,,0.00,,2013-07-24 20:52:00,
2013-07-24 17:12:00,74.0,64.0,29.93,North,-999,-999.0,-999.0,70,0.00,,,0.00,,2013-07-24 21:12:00,
2013-07-24 17:32:00,74.0,63.0,29.94,North,-999,-999.0,-999.0,69,0.00,,,0.00,,2013-07-24 21:32:00,
2013-07-24 17:52:00,75.0,64.0,29.93,North,359,4.0,8.0,69,0.00,,,0.00,,2013-07-24 21:52:00,
2013-07-24 18:02:00,75.0,64.0,29.93,North,359,4.0,9.0,68,0.00,,,0.00,,2013-07-24 22:02:00,
2013-07-24 19:02:00,75.0,64.0,29.93,North,-999,-999.0,-999.0,69,0.00,,,0.00,,2013-07-24 23:02:00,
2013-07-24 19:32:00,75.0,64.0,29.93,North,7,4.0,7.0,69,0.00,,,0.00,,2013-07-24 23:32:00,
2013-07-24 19:43:00,75.0,64.0,29.93,North,5,2.0,7.0,68,0.00,,,0.00,,2013-07-24 23:43:00,
2013-07-24 19:52:00,74.0,62.0,29.94,North,-999,-999.0,-999.0,67,0.00,,,0.00,,2013-07-24 23:52:00,
2013-07-24 20:02:00,74.0,62.0,29.94,North,-999,-999.0,-999.0,67,0.00,,,0.00,,2013-07-25 00:02:00,
2013-07-24 20:33:00,72.0,61.0,29.95,North,359,3.0,7.0,69,0.00,,,0.00,,2013-07-25 00:33:00,
2013-07-24 20:43:00,72.0,61.0,29.96,North,-999,-999.0,-999.0,69,0.00,,,0.00,,2013-07-25 00:43:00,
2013-07-24 21:03:00,71.0,61.0,29.96,North,359,2.0,7.0,70,0.00,,,0.00,,2013-07-25 01:03:00,
2013-07-24 21:12:00,71.0,61.0,29.96,North,359,2.0,7.0,70,0.00,,,0.00,,2013-07-25 01:12:00,
2013-07-24 21:32:00,70.0,60.0,29.96,North,359,1.0,3.0,70,0.00,,,0.00,,2013-07-25 01:32:00,
2013-07-24 21:43:00,70.0,60.0,29.96,North,359,0.0,5.0,71,0.00,,,0.00,,2013-07-25 01:43:00,
2013-07-24 22:12:00,69.0,60.0,29.97,North,359,0.0,2.0,72,0.00,,,0.00,,2013-07-25 02:12:00,
2013-07-24 22:22:00,69.0,60.0,29.97,North,359,0.0,3.0,73,0.00,,,0.00,,2013-07-25 02:22:00,
2013-07-24 22:43:00,68.0,59.0,29.98,North,359,0.0,3.0,74,0.00,,,0.00,,2013-07-25 02:43:00,
2013-07-24 23:02:00,68.0,59.0,29.98,North,359,1.0,2.0,73,0.00,,,0.00,,2013-07-25 03:02:00,
2013-07-24 23:16:00,67.0,58.0,29.98,North,359,0.0,1.0,73,0.00,,,0.00,,2013-07-25 03:16:00,
2013-07-24 23:24:00,67.0,58.0,29.99,North,359,0.0,3.0,73,0.00,,,0.00,,2013-07-25 03:24:00,
2013-07-24 23:38:00,67.0,58.0,29.98,North,359,0.0,0.0,72,0.00,,,0.00,,2013-07-25 03:38:00,
2013-07-24 23:44:00,67.0,58.0,29.99,North,359,0.0,0.0,73,0.00,,,0.00,,2013-07-25 03:44:00,